sensor_id;sensor_type;location;lat;lon;timestamp;pressure;altitude;pressure_sealevel;temperature;humidity
63339;BME280;47485;51.378;-1.342;2023-03-26T00:02:24;98845.68;;;7.77;30.58
63339;BME280;47485;51.378;-1.342;2023-03-26T00:04:51;98836.71;;;8.80;30.61
63339;BME280;47485;51.378;-1.342;2023-03-26T00:07:17;98827.92;;;9.34;30.12
63339;BME280;47485;51.378;-1.342;2023-03-26T00:09:44;98822.52;;;7.72;29.78
63339;BME280;47485;51.378;-1.342;2023-03-26T00:12:11;98816.41;;;9.50;30.25
63339;BME280;47485;51.378;-1.342;2023-03-26T00:14:38;98811.85;;;8.85;30.06
63339;BME280;47485;51.378;-1.342;2023-03-26T00:17:04;98814.43;;;8.52;30.54
63339;BME280;47485;51.378;-1.342;2023-03-26T00:19:31;98812.31;;;6.73;31.79
63339;BME280;47485;51.378;-1.342;2023-03-26T00:21:58;98803.85;;;7.91;31.62
63339;BME280;47485;51.378;-1.342;2023-03-26T00:24:25;98808.65;;;7.20;32.19
63339;BME280;47485;51.378;-1.342;2023-03-26T00:26:52;98804.86;;;7.30;31.87
63339;BME280;47485;51.378;-1.342;2023-03-26T00:29:18;98804.27;;;7.02;31.84
63339;BME280;47485;51.378;-1.342;2023-03-26T00:31:45;98803.47;;;5.96;33.00
63339;BME280;47485;51.378;-1.342;2023-03-26T00:34:12;98797.14;;;6.22;32.94
63339;BME280;47485;51.378;-1.342;2023-03-26T00:36:39;98796.19;;;4.71;33.83
63339;BME280;47485;51.378;-1.342;2023-03-26T00:39:06;98794.90;;;7.44;32.40
63339;BME280;47485;51.378;-1.342;2023-03-26T00:41:33;98784.52;;;7.51;31.89
63339;BME280;47485;51.378;-1.342;2023-03-26T00:43:59;98775.47;;;8.69;31.33
63339;BME280;47485;51.378;-1.342;2023-03-26T00:46:28;98767.80;;;10.07;30.71
63339;BME280;47485;51.378;-1.342;2023-03-26T00:48:56;98763.05;;;8.56;30.23
63339;BME280;47485;51.378;-1.342;2023-03-26T00:51:23;98764.77;;;9.21;29.58
63339;BME280;47485;51.378;-1.342;2023-03-26T00:53:51;98761.56;;;8.42;31.44
63339;BME280;47485;51.378;-1.342;2023-03-26T00:56:18;98758.61;;;7.37;31.83
63339;BME280;47485;51.378;-1.342;2023-03-26T00:58:45;98750.41;;;7.30;31.54
63339;BME280;47485;51.378;-1.342;2023-03-26T01:01:14;98748.79;;;8.49;30.23
63339;BME280;47485;51.378;-1.342;2023-03-26T01:03:43;98743.77;;;6.75;31.49
63339;BME280;47485;51.378;-1.342;2023-03-26T01:06:12;98742.14;;;11.15;29.76
63339;BME280;47485;51.378;-1.342;2023-03-26T01:08:42;98734.10;;;9.26;29.98
63339;BME280;47485;51.378;-1.342;2023-03-26T01:11:12;98726.73;;;9.86;29.55
63339;BME280;47485;51.378;-1.342;2023-03-26T01:13:45;98722.16;;;9.01;29.77
63339;BME280;47485;51.378;-1.342;2023-03-26T01:16:25;98716.27;;;9.48;29.48
63339;BME280;47485;51.378;-1.342;2023-03-26T01:18:52;98711.18;;;9.56;29.08
63339;BME280;47485;51.378;-1.342;2023-03-26T01:21:22;98708.50;;;8.50;29.06
63339;BME280;47485;51.378;-1.342;2023-03-26T01:23:56;98703.50;;;9.80;29.17
63339;BME280;47485;51.378;-1.342;2023-03-26T01:26:34;98699.92;;;10.67;28.93
63339;BME280;47485;51.378;-1.342;2023-03-26T01:29:05;98695.99;;;9.51;29.07
63339;BME280;47485;51.378;-1.342;2023-03-26T01:31:45;98689.53;;;9.95;28.72
63339;BME280;47485;51.378;-1.342;2023-03-26T01:34:18;98683.75;;;11.30;28.83
63339;BME280;47485;51.378;-1.342;2023-03-26T01:36:52;98676.32;;;11.03;28.50
63339;BME280;47485;51.378;-1.342;2023-03-26T01:39:25;98685.85;;;8.83;29.09
63339;BME280;47485;51.378;-1.342;2023-03-26T01:41:57;98679.55;;;8.96;30.06
63339;BME280;47485;51.378;-1.342;2023-03-26T01:44:30;98687.42;;;7.51;30.80
63339;BME280;47485;51.378;-1.342;2023-03-26T01:47:00;98692.00;;;9.48;30.35
63339;BME280;47485;51.378;-1.342;2023-03-26T01:49:27;98691.00;;;6.27;34.04
63339;BME280;47485;51.378;-1.342;2023-03-26T01:51:56;98691.37;;;1.81;39.27
63339;BME280;47485;51.378;-1.342;2023-03-26T01:54:26;98686.09;;;5.44;36.66
63339;BME280;47485;51.378;-1.342;2023-03-26T01:57:01;98677.39;;;6.34;34.37
63339;BME280;47485;51.378;-1.342;2023-03-26T01:59:42;98681.07;;;3.99;34.92
63339;BME280;47485;51.378;-1.342;2023-03-26T02:02:16;98674.75;;;6.32;35.54
63339;BME280;47485;51.378;-1.342;2023-03-26T02:04:51;98677.90;;;6.30;36.02
63339;BME280;47485;51.378;-1.342;2023-03-26T02:07:24;98681.14;;;6.03;36.87
63339;BME280;47485;51.378;-1.342;2023-03-26T02:09:55;98672.11;;;7.70;35.49
63339;BME280;47485;51.378;-1.342;2023-03-26T02:12:24;98674.13;;;5.66;37.24
63339;BME280;47485;51.378;-1.342;2023-03-26T02:14:52;98675.35;;;4.01;39.64
63339;BME280;47485;51.378;-1.342;2023-03-26T02:17:19;98671.38;;;2.42;41.70
63339;BME280;47485;51.378;-1.342;2023-03-26T02:19:46;98669.19;;;1.58;41.61
63339;BME280;47485;51.378;-1.342;2023-03-26T02:22:13;98658.66;;;5.76;37.07
63339;BME280;47485;51.378;-1.342;2023-03-26T02:24:40;98659.71;;;5.16;38.70
63339;BME280;47485;51.378;-1.342;2023-03-26T02:27:07;98659.70;;;1.41;41.23
63339;BME280;47485;51.378;-1.342;2023-03-26T02:29:33;98650.62;;;5.24;37.27
63339;BME280;47485;51.378;-1.342;2023-03-26T02:32:00;98647.65;;;7.71;35.23
63339;BME280;47485;51.378;-1.342;2023-03-26T02:34:27;98641.30;;;5.14;37.54
63339;BME280;47485;51.378;-1.342;2023-03-26T02:36:54;98638.76;;;5.24;35.95
63339;BME280;47485;51.378;-1.342;2023-03-26T02:39:21;98635.10;;;4.89;36.55
63339;BME280;47485;51.378;-1.342;2023-03-26T02:41:48;98632.32;;;4.47;37.25
63339;BME280;47485;51.378;-1.342;2023-03-26T02:44:15;98623.50;;;6.37;34.39
63339;BME280;47485;51.378;-1.342;2023-03-26T02:46:42;98626.66;;;4.18;36.00
63339;BME280;47485;51.378;-1.342;2023-03-26T02:49:08;98623.63;;;4.06;35.90
63339;BME280;47485;51.378;-1.342;2023-03-26T02:51:35;98619.47;;;6.77;33.00
63339;BME280;47485;51.378;-1.342;2023-03-26T02:54:02;98615.85;;;7.28;32.99
63339;BME280;47485;51.378;-1.342;2023-03-26T02:56:29;98613.74;;;8.67;30.99
63339;BME280;47485;51.378;-1.342;2023-03-26T02:58:56;98612.90;;;7.92;31.17
63339;BME280;47485;51.378;-1.342;2023-03-26T03:01:24;98607.70;;;7.89;30.83
63339;BME280;47485;51.378;-1.342;2023-03-26T03:03:50;98606.48;;;6.54;30.99
63339;BME280;47485;51.378;-1.342;2023-03-26T03:06:17;98599.26;;;8.12;31.10
63339;BME280;47485;51.378;-1.342;2023-03-26T03:08:45;98597.48;;;8.46;29.90
63339;BME280;47485;51.378;-1.342;2023-03-26T03:11:13;98594.55;;;8.19;30.12
63339;BME280;47485;51.378;-1.342;2023-03-26T03:13:40;98593.54;;;7.27;30.49
63339;BME280;47485;51.378;-1.342;2023-03-26T03:16:08;98592.88;;;8.21;30.38
63339;BME280;47485;51.378;-1.342;2023-03-26T03:18:35;98591.65;;;6.32;31.06
63339;BME280;47485;51.378;-1.342;2023-03-26T03:21:03;98592.13;;;7.99;30.18
63339;BME280;47485;51.378;-1.342;2023-03-26T03:23:30;98590.25;;;8.81;30.09
63339;BME280;47485;51.378;-1.342;2023-03-26T03:25:56;98588.01;;;7.56;30.16
63339;BME280;47485;51.378;-1.342;2023-03-26T03:28:24;98589.12;;;7.27;31.07
63339;BME280;47485;51.378;-1.342;2023-03-26T03:30:51;98585.37;;;8.42;29.98
63339;BME280;47485;51.378;-1.342;2023-03-26T03:33:18;98581.86;;;10.40;28.01
63339;BME280;47485;51.378;-1.342;2023-03-26T03:35:44;98578.68;;;9.11;29.10
63339;BME280;47485;51.378;-1.342;2023-03-26T03:38:11;98577.88;;;10.42;27.31
63339;BME280;47485;51.378;-1.342;2023-03-26T03:40:38;98579.29;;;9.23;29.35
63339;BME280;47485;51.378;-1.342;2023-03-26T03:43:04;98578.90;;;7.48;29.64
63339;BME280;47485;51.378;-1.342;2023-03-26T03:45:31;98579.62;;;8.49;29.32
63339;BME280;47485;51.378;-1.342;2023-03-26T03:47:58;98579.25;;;9.47;28.41
63339;BME280;47485;51.378;-1.342;2023-03-26T03:50:25;98576.96;;;10.10;28.64
63339;BME280;47485;51.378;-1.342;2023-03-26T03:52:52;98574.92;;;8.73;28.94
63339;BME280;47485;51.378;-1.342;2023-03-26T03:55:18;98574.81;;;8.33;29.29
63339;BME280;47485;51.378;-1.342;2023-03-26T03:57:45;98573.72;;;7.76;29.49
63339;BME280;47485;51.378;-1.342;2023-03-26T04:00:13;98573.19;;;8.39;29.45
63339;BME280;47485;51.378;-1.342;2023-03-26T04:02:41;98569.05;;;8.76;28.79
63339;BME280;47485;51.378;-1.342;2023-03-26T04:05:09;98570.32;;;7.27;30.48
63339;BME280;47485;51.378;-1.342;2023-03-26T04:07:36;98569.86;;;7.80;29.79
63339;BME280;47485;51.378;-1.342;2023-03-26T04:10:05;98571.43;;;8.89;28.95
63339;BME280;47485;51.378;-1.342;2023-03-26T04:12:32;98569.20;;;9.04;28.70
63339;BME280;47485;51.378;-1.342;2023-03-26T04:14:58;98573.13;;;8.13;28.66
63339;BME280;47485;51.378;-1.342;2023-03-26T04:17:25;98567.21;;;9.43;27.04
63339;BME280;47485;51.378;-1.342;2023-03-26T04:19:52;98572.48;;;11.76;26.87
63339;BME280;47485;51.378;-1.342;2023-03-26T04:22:19;98575.09;;;10.73;27.01
63339;BME280;47485;51.378;-1.342;2023-03-26T04:24:46;98581.90;;;8.28;28.68
63339;BME280;47485;51.378;-1.342;2023-03-26T04:27:15;98581.70;;;8.13;29.45
63339;BME280;47485;51.378;-1.342;2023-03-26T04:29:45;98581.31;;;8.29;29.72
63339;BME280;47485;51.378;-1.342;2023-03-26T04:32:18;98582.98;;;9.29;29.12
63339;BME280;47485;51.378;-1.342;2023-03-26T04:34:47;98583.04;;;7.04;29.61
63339;BME280;47485;51.378;-1.342;2023-03-26T04:37:21;98582.52;;;8.01;29.69
63339;BME280;47485;51.378;-1.342;2023-03-26T04:39:50;98585.88;;;9.30;29.51
63339;BME280;47485;51.378;-1.342;2023-03-26T04:42:17;98584.12;;;7.57;29.62
63339;BME280;47485;51.378;-1.342;2023-03-26T04:44:43;98586.45;;;6.88;29.93
63339;BME280;47485;51.378;-1.342;2023-03-26T04:47:10;98585.69;;;7.38;29.29
63339;BME280;47485;51.378;-1.342;2023-03-26T04:49:37;98586.31;;;8.00;29.22
63339;BME280;47485;51.378;-1.342;2023-03-26T04:52:04;98587.42;;;7.89;29.23
63339;BME280;47485;51.378;-1.342;2023-03-26T04:54:30;98589.45;;;7.85;29.29
63339;BME280;47485;51.378;-1.342;2023-03-26T04:56:59;98589.13;;;8.28;28.98
63339;BME280;47485;51.378;-1.342;2023-03-26T04:59:29;98591.76;;;7.82;28.91
63339;BME280;47485;51.378;-1.342;2023-03-26T05:01:56;98592.28;;;8.18;29.31
63339;BME280;47485;51.378;-1.342;2023-03-26T05:04:24;98592.68;;;9.01;28.72
63339;BME280;47485;51.378;-1.342;2023-03-26T05:06:51;98594.80;;;8.17;28.88
63339;BME280;47485;51.378;-1.342;2023-03-26T05:09:18;98597.97;;;8.98;28.66
63339;BME280;47485;51.378;-1.342;2023-03-26T05:11:45;98595.56;;;7.76;28.80
63339;BME280;47485;51.378;-1.342;2023-03-26T05:14:11;98596.82;;;8.20;28.85
63339;BME280;47485;51.378;-1.342;2023-03-26T05:16:38;98596.70;;;8.60;28.82
63339;BME280;47485;51.378;-1.342;2023-03-26T05:19:05;98600.72;;;9.00;28.56
63339;BME280;47485;51.378;-1.342;2023-03-26T05:21:32;98598.64;;;7.88;28.60
63339;BME280;47485;51.378;-1.342;2023-03-26T05:23:59;98601.18;;;6.98;29.60
63339;BME280;47485;51.378;-1.342;2023-03-26T05:26:25;98598.95;;;7.95;28.82
63339;BME280;47485;51.378;-1.342;2023-03-26T05:28:52;98601.76;;;9.29;28.12
63339;BME280;47485;51.378;-1.342;2023-03-26T05:31:19;98601.92;;;8.44;27.87
63339;BME280;47485;51.378;-1.342;2023-03-26T05:33:46;98604.92;;;9.16;28.47
63339;BME280;47485;51.378;-1.342;2023-03-26T05:36:13;98608.20;;;9.01;27.75
63339;BME280;47485;51.378;-1.342;2023-03-26T05:38:42;98608.36;;;8.99;28.14
63339;BME280;47485;51.378;-1.342;2023-03-26T05:41:10;98610.60;;;8.11;28.24
63339;BME280;47485;51.378;-1.342;2023-03-26T05:43:37;98611.20;;;9.13;27.72
63339;BME280;47485;51.378;-1.342;2023-03-26T05:46:05;98610.81;;;11.59;25.57
63339;BME280;47485;51.378;-1.342;2023-03-26T05:48:32;98612.96;;;11.19;25.32
63339;BME280;47485;51.378;-1.342;2023-03-26T05:50:59;98617.09;;;10.24;27.39
63339;BME280;47485;51.378;-1.342;2023-03-26T05:53:26;98620.56;;;7.27;28.99
63339;BME280;47485;51.378;-1.342;2023-03-26T05:55:53;98622.14;;;8.59;29.28
63339;BME280;47485;51.378;-1.342;2023-03-26T05:58:20;98622.42;;;6.96;28.73
63339;BME280;47485;51.378;-1.342;2023-03-26T06:00:48;98621.72;;;9.09;27.71
63339;BME280;47485;51.378;-1.342;2023-03-26T06:03:14;98622.14;;;11.05;27.38
63339;BME280;47485;51.378;-1.342;2023-03-26T06:05:41;98633.22;;;5.69;31.73
63339;BME280;47485;51.378;-1.342;2023-03-26T06:08:08;98630.40;;;6.05;30.43
63339;BME280;47485;51.378;-1.342;2023-03-26T06:10:36;98628.72;;;6.76;30.63
63339;BME280;47485;51.378;-1.342;2023-03-26T06:13:03;98629.17;;;7.67;29.24
63339;BME280;47485;51.378;-1.342;2023-03-26T06:15:32;98636.21;;;7.15;30.20
63339;BME280;47485;51.378;-1.342;2023-03-26T06:17:59;98636.15;;;7.66;29.21
63339;BME280;47485;51.378;-1.342;2023-03-26T06:20:27;98639.28;;;6.95;29.48
63339;BME280;47485;51.378;-1.342;2023-03-26T06:22:56;98643.90;;;6.96;29.08
63339;BME280;47485;51.378;-1.342;2023-03-26T06:25:23;98644.95;;;6.69;29.32
63339;BME280;47485;51.378;-1.342;2023-03-26T06:27:50;98647.99;;;6.71;29.09
63339;BME280;47485;51.378;-1.342;2023-03-26T06:30:17;98650.97;;;7.30;28.28
63339;BME280;47485;51.378;-1.342;2023-03-26T06:32:43;98650.62;;;9.33;27.88
63339;BME280;47485;51.378;-1.342;2023-03-26T06:35:10;98651.86;;;9.79;27.26
63339;BME280;47485;51.378;-1.342;2023-03-26T06:37:37;98652.82;;;7.58;27.95
63339;BME280;47485;51.378;-1.342;2023-03-26T06:40:05;98657.96;;;9.80;27.40
63339;BME280;47485;51.378;-1.342;2023-03-26T06:42:32;98661.48;;;8.55;28.02
63339;BME280;47485;51.378;-1.342;2023-03-26T06:44:59;98668.97;;;8.09;28.33
63339;BME280;47485;51.378;-1.342;2023-03-26T06:47:26;98673.10;;;7.83;28.18
63339;BME280;47485;51.378;-1.342;2023-03-26T06:49:52;98674.83;;;8.55;28.08
63339;BME280;47485;51.378;-1.342;2023-03-26T06:52:19;98676.21;;;8.25;27.80
63339;BME280;47485;51.378;-1.342;2023-03-26T06:54:46;98677.90;;;7.57;28.06
63339;BME280;47485;51.378;-1.342;2023-03-26T06:57:13;98683.51;;;7.98;28.18
63339;BME280;47485;51.378;-1.342;2023-03-26T06:59:39;98687.22;;;8.66;28.37
63339;BME280;47485;51.378;-1.342;2023-03-26T07:02:08;98686.47;;;8.10;28.11
63339;BME280;47485;51.378;-1.342;2023-03-26T07:04:35;98687.33;;;7.80;27.94
63339;BME280;47485;51.378;-1.342;2023-03-26T07:07:01;98692.36;;;7.81;27.86
63339;BME280;47485;51.378;-1.342;2023-03-26T07:09:28;98694.99;;;7.69;27.83
63339;BME280;47485;51.378;-1.342;2023-03-26T07:11:55;98697.76;;;8.19;28.01
63339;BME280;47485;51.378;-1.342;2023-03-26T07:14:23;98702.45;;;7.27;28.00
63339;BME280;47485;51.378;-1.342;2023-03-26T07:16:50;98709.33;;;8.47;28.71
63339;BME280;47485;51.378;-1.342;2023-03-26T07:19:17;98711.30;;;7.85;28.24
63339;BME280;47485;51.378;-1.342;2023-03-26T07:21:44;98714.17;;;9.55;27.68
63339;BME280;47485;51.378;-1.342;2023-03-26T07:24:12;98714.52;;;8.81;27.93
63339;BME280;47485;51.378;-1.342;2023-03-26T07:26:46;98714.11;;;7.04;27.83
63339;BME280;47485;51.378;-1.342;2023-03-26T07:29:25;98721.21;;;8.57;27.84
63339;BME280;47485;51.378;-1.342;2023-03-26T07:31:59;98727.32;;;8.00;28.47
63339;BME280;47485;51.378;-1.342;2023-03-26T07:34:37;98733.43;;;8.40;28.25
63339;BME280;47485;51.378;-1.342;2023-03-26T07:37:21;98737.40;;;8.77;28.32
63339;BME280;47485;51.378;-1.342;2023-03-26T07:39:57;98740.80;;;8.22;28.49
63339;BME280;47485;51.378;-1.342;2023-03-26T07:42:34;98742.80;;;7.05;29.57
63339;BME280;47485;51.378;-1.342;2023-03-26T07:45:16;98746.87;;;8.22;28.50
63339;BME280;47485;51.378;-1.342;2023-03-26T07:47:46;98751.73;;;8.16;28.45
63339;BME280;47485;51.378;-1.342;2023-03-26T07:50:15;98758.16;;;7.66;27.92
63339;BME280;47485;51.378;-1.342;2023-03-26T07:52:42;98759.86;;;8.00;28.36
63339;BME280;47485;51.378;-1.342;2023-03-26T07:55:12;98766.51;;;7.73;27.89
63339;BME280;47485;51.378;-1.342;2023-03-26T07:57:51;98773.87;;;7.24;28.58
63339;BME280;47485;51.378;-1.342;2023-03-26T08:00:25;98778.01;;;7.64;27.85
63339;BME280;47485;51.378;-1.342;2023-03-26T08:03:15;98780.59;;;7.82;27.91
63339;BME280;47485;51.378;-1.342;2023-03-26T08:05:51;98785.74;;;7.16;27.34
63339;BME280;47485;51.378;-1.342;2023-03-26T08:08:24;98789.12;;;8.16;28.33
63339;BME280;47485;51.378;-1.342;2023-03-26T08:11:03;98791.81;;;8.46;28.22
63339;BME280;47485;51.378;-1.342;2023-03-26T08:13:39;98798.27;;;7.99;28.15
63339;BME280;47485;51.378;-1.342;2023-03-26T08:16:17;98798.11;;;7.56;27.70
63339;BME280;47485;51.378;-1.342;2023-03-26T08:18:48;98802.00;;;8.51;28.72
63339;BME280;47485;51.378;-1.342;2023-03-26T08:21:21;98803.82;;;8.18;28.30
63339;BME280;47485;51.378;-1.342;2023-03-26T08:23:59;98809.17;;;6.64;28.75
63339;BME280;47485;51.378;-1.342;2023-03-26T08:26:34;98812.99;;;7.02;29.02
63339;BME280;47485;51.378;-1.342;2023-03-26T08:29:14;98823.74;;;7.37;29.42
63339;BME280;47485;51.378;-1.342;2023-03-26T08:31:43;98827.56;;;8.43;28.78
63339;BME280;47485;51.378;-1.342;2023-03-26T08:34:12;98832.09;;;8.61;28.71
63339;BME280;47485;51.378;-1.342;2023-03-26T08:36:40;98836.79;;;7.32;28.47
63339;BME280;47485;51.378;-1.342;2023-03-26T08:39:06;98840.54;;;8.03;28.81
63339;BME280;47485;51.378;-1.342;2023-03-26T08:42:29;98847.12;;;8.92;28.63
63339;BME280;47485;51.378;-1.342;2023-03-26T08:47:47;98857.96;;;8.80;28.79
63339;BME280;47485;51.378;-1.342;2023-03-26T08:50:35;98867.03;;;7.67;29.43
63339;BME280;47485;51.378;-1.342;2023-03-26T08:53:26;98872.13;;;6.19;30.29
63339;BME280;47485;51.378;-1.342;2023-03-26T08:56:04;98875.77;;;7.05;30.11
63339;BME280;47485;51.378;-1.342;2023-03-26T08:58:55;98880.12;;;7.40;29.42
63339;BME280;47485;51.378;-1.342;2023-03-26T09:02:25;98887.43;;;8.21;30.40
63339;BME280;47485;51.378;-1.342;2023-03-26T09:05:18;98892.16;;;7.82;30.19
63339;BME280;47485;51.378;-1.342;2023-03-26T09:08:05;98903.93;;;7.53;31.20
63339;BME280;47485;51.378;-1.342;2023-03-26T09:10:51;98909.56;;;5.14;32.33
63339;BME280;47485;51.378;-1.342;2023-03-26T09:13:37;98915.71;;;6.73;31.55
63339;BME280;47485;51.378;-1.342;2023-03-26T09:16:36;98914.30;;;7.84;30.47
63339;BME280;47485;51.378;-1.342;2023-03-26T09:19:52;98921.62;;;5.76;30.40
63339;BME280;47485;51.378;-1.342;2023-03-26T09:22:46;98927.55;;;5.94;31.22
63339;BME280;47485;51.378;-1.342;2023-03-26T09:25:34;98933.45;;;4.82;32.02
63339;BME280;47485;51.378;-1.342;2023-03-26T09:28:26;98938.49;;;5.73;32.35
63339;BME280;47485;51.378;-1.342;2023-03-26T09:31:27;98944.29;;;5.82;32.21
63339;BME280;47485;51.378;-1.342;2023-03-26T09:34:12;98948.50;;;6.33;31.37
63339;BME280;47485;51.378;-1.342;2023-03-26T09:36:52;98955.55;;;5.10;32.91
63339;BME280;47485;51.378;-1.342;2023-03-26T09:39:33;98960.51;;;6.41;31.65
63339;BME280;47485;51.378;-1.342;2023-03-26T09:42:08;98963.68;;;6.39;31.62
63339;BME280;47485;51.378;-1.342;2023-03-26T09:45:06;98970.02;;;7.81;30.56
63339;BME280;47485;51.378;-1.342;2023-03-26T09:47:52;98973.82;;;8.12;30.47
63339;BME280;47485;51.378;-1.342;2023-03-26T09:50:36;98982.03;;;6.51;30.56
63339;BME280;47485;51.378;-1.342;2023-03-26T09:53:21;98988.29;;;7.08;31.02
63339;BME280;47485;51.378;-1.342;2023-03-26T09:55:58;98991.72;;;7.43;30.67
63339;BME280;47485;51.378;-1.342;2023-03-26T09:58:40;98993.16;;;6.77;30.47
63339;BME280;47485;51.378;-1.342;2023-03-26T10:01:14;99001.42;;;7.68;30.59
63339;BME280;47485;51.378;-1.342;2023-03-26T10:03:53;99002.00;;;7.83;30.21
63339;BME280;47485;51.378;-1.342;2023-03-26T10:06:38;99013.46;;;7.32;31.22
63339;BME280;47485;51.378;-1.342;2023-03-26T10:09:19;99017.95;;;7.75;31.31
63339;BME280;47485;51.378;-1.342;2023-03-26T10:12:00;99026.19;;;7.06;31.93
63339;BME280;47485;51.378;-1.342;2023-03-26T10:14:36;99029.83;;;7.22;31.79
63339;BME280;47485;51.378;-1.342;2023-03-26T10:17:19;99036.00;;;7.61;31.59
63339;BME280;47485;51.378;-1.342;2023-03-26T10:19:59;99042.23;;;4.47;35.66
63339;BME280;47485;51.378;-1.342;2023-03-26T10:22:41;99047.02;;;7.63;32.83
63339;BME280;47485;51.378;-1.342;2023-03-26T10:25:21;99053.04;;;6.88;33.14
63339;BME280;47485;51.378;-1.342;2023-03-26T10:28:01;99057.55;;;7.91;32.46
63339;BME280;47485;51.378;-1.342;2023-03-26T10:30:55;99063.91;;;6.29;32.31
63339;BME280;47485;51.378;-1.342;2023-03-26T10:33:30;99069.53;;;7.31;32.52
63339;BME280;47485;51.378;-1.342;2023-03-26T10:36:18;99081.33;;;6.06;34.15
63339;BME280;47485;51.378;-1.342;2023-03-26T10:39:03;99091.00;;;0.29;40.23
63339;BME280;47485;51.378;-1.342;2023-03-26T10:41:40;99096.52;;;0.70;38.89
63339;BME280;47485;51.378;-1.342;2023-03-26T10:44:25;99099.62;;;4.88;36.06
63339;BME280;47485;51.378;-1.342;2023-03-26T10:47:10;99101.77;;;5.23;35.31
63339;BME280;47485;51.378;-1.342;2023-03-26T10:49:53;99106.13;;;2.83;36.37
63339;BME280;47485;51.378;-1.342;2023-03-26T10:52:31;99109.02;;;6.24;33.84
63339;BME280;47485;51.378;-1.342;2023-03-26T10:55:07;99116.60;;;6.51;33.50
63339;BME280;47485;51.378;-1.342;2023-03-26T10:57:40;99122.59;;;6.50;33.30
63339;BME280;47485;51.378;-1.342;2023-03-26T11:00:15;99126.00;;;5.04;34.80
63339;BME280;47485;51.378;-1.342;2023-03-26T11:02:47;99129.72;;;6.76;33.46
63339;BME280;47485;51.378;-1.342;2023-03-26T11:05:29;99145.13;;;2.35;38.57
63339;BME280;47485;51.378;-1.342;2023-03-26T11:08:05;99155.71;;;0.95;42.56
63339;BME280;47485;51.378;-1.342;2023-03-26T11:10:45;99160.90;;;4.15;38.12
63339;BME280;47485;51.378;-1.342;2023-03-26T11:13:20;99162.33;;;3.25;38.30
63339;BME280;47485;51.378;-1.342;2023-03-26T11:15:57;99165.88;;;4.99;36.06
63339;BME280;47485;51.378;-1.342;2023-03-26T11:18:33;99168.19;;;4.91;36.82
63339;BME280;47485;51.378;-1.342;2023-03-26T11:21:07;99169.48;;;6.58;35.08
63339;BME280;47485;51.378;-1.342;2023-03-26T11:23:39;99173.50;;;5.39;35.60
63339;BME280;47485;51.378;-1.342;2023-03-26T11:26:13;99179.32;;;8.02;35.53
63339;BME280;47485;51.378;-1.342;2023-03-26T11:28:55;99188.79;;;4.58;36.71
63339;BME280;47485;51.378;-1.342;2023-03-26T11:31:36;99192.45;;;5.08;35.79
63339;BME280;47485;51.378;-1.342;2023-03-26T11:34:11;99195.44;;;7.00;33.84
63339;BME280;47485;51.378;-1.342;2023-03-26T11:36:43;99198.15;;;8.78;32.58
63339;BME280;47485;51.378;-1.342;2023-03-26T11:39:14;99204.22;;;4.65;38.13
63339;BME280;47485;51.378;-1.342;2023-03-26T11:41:45;99199.70;;;6.76;35.34
63339;BME280;47485;51.378;-1.342;2023-03-26T11:44:18;99204.56;;;5.61;34.90
63339;BME280;47485;51.378;-1.342;2023-03-26T11:46:47;99218.85;;;3.10;37.38
63339;BME280;47485;51.378;-1.342;2023-03-26T11:49:17;99229.84;;;1.88;40.61
63339;BME280;47485;51.378;-1.342;2023-03-26T11:51:46;99233.25;;;4.72;37.78
63339;BME280;47485;51.378;-1.342;2023-03-26T11:54:14;99232.86;;;5.28;36.62
63339;BME280;47485;51.378;-1.342;2023-03-26T11:56:44;99238.48;;;4.81;37.26
63339;BME280;47485;51.378;-1.342;2023-03-26T11:59:15;99251.93;;;3.10;38.98
63339;BME280;47485;51.378;-1.342;2023-03-26T12:01:48;99254.97;;;2.73;39.93
63339;BME280;47485;51.378;-1.342;2023-03-26T12:04:17;99253.35;;;4.82;38.55
63339;BME280;47485;51.378;-1.342;2023-03-26T12:06:54;99266.18;;;4.88;38.20
63339;BME280;47485;51.378;-1.342;2023-03-26T12:09:23;99283.75;;;3.24;40.53
63339;BME280;47485;51.378;-1.342;2023-03-26T12:11:53;99295.86;;;5.62;38.02
63339;BME280;47485;51.378;-1.342;2023-03-26T12:14:27;99295.61;;;4.14;41.11
63339;BME280;47485;51.378;-1.342;2023-03-26T12:16:58;99300.91;;;3.06;39.85
63339;BME280;47485;51.378;-1.342;2023-03-26T12:19:25;99314.63;;;3.38;41.92
63339;BME280;47485;51.378;-1.342;2023-03-26T12:21:52;99324.84;;;1.91;45.67
63339;BME280;47485;51.378;-1.342;2023-03-26T12:24:26;99333.82;;;2.31;46.48
63339;BME280;47485;51.378;-1.342;2023-03-26T12:26:58;99332.32;;;4.65;41.13
63339;BME280;47485;51.378;-1.342;2023-03-26T12:29:26;99338.94;;;2.00;41.86
63339;BME280;47485;51.378;-1.342;2023-03-26T12:31:55;99350.17;;;2.80;41.64
63339;BME280;47485;51.378;-1.342;2023-03-26T12:34:27;99360.52;;;2.36;43.78
63339;BME280;47485;51.378;-1.342;2023-03-26T12:36:56;99365.17;;;3.05;43.55
63339;BME280;47485;51.378;-1.342;2023-03-26T12:39:30;99371.17;;;3.21;42.62
63339;BME280;47485;51.378;-1.342;2023-03-26T12:41:58;99377.96;;;3.02;43.83
63339;BME280;47485;51.378;-1.342;2023-03-26T12:44:28;99379.68;;;1.86;43.19
63339;BME280;47485;51.378;-1.342;2023-03-26T12:47:08;99387.79;;;3.20;42.43
63339;BME280;47485;51.378;-1.342;2023-03-26T12:49:36;99399.10;;;2.57;42.49
63339;BME280;47485;51.378;-1.342;2023-03-26T12:52:17;99406.41;;;3.94;40.84
63339;BME280;47485;51.378;-1.342;2023-03-26T12:54:53;99409.92;;;2.39;42.94
63339;BME280;47485;51.378;-1.342;2023-03-26T12:57:31;99416.24;;;3.68;40.77
63339;BME280;47485;51.378;-1.342;2023-03-26T13:00:08;99429.65;;;2.92;44.31
63339;BME280;47485;51.378;-1.342;2023-03-26T13:02:56;99434.13;;;3.09;42.40
63339;BME280;47485;51.378;-1.342;2023-03-26T13:05:37;99436.46;;;3.17;41.24
63339;BME280;47485;51.378;-1.342;2023-03-26T13:08:22;99442.08;;;3.21;41.13
63339;BME280;47485;51.378;-1.342;2023-03-26T13:11:00;99447.66;;;3.78;38.43
63339;BME280;47485;51.378;-1.342;2023-03-26T13:13:46;99455.79;;;3.60;37.99
63339;BME280;47485;51.378;-1.342;2023-03-26T13:16:22;99465.26;;;1.68;40.61
63339;BME280;47485;51.378;-1.342;2023-03-26T13:18:55;99469.39;;;3.00;39.90
63339;BME280;47485;51.378;-1.342;2023-03-26T13:21:31;99475.28;;;3.85;39.03
63339;BME280;47485;51.378;-1.342;2023-03-26T13:24:09;99480.74;;;3.77;38.10
63339;BME280;47485;51.378;-1.342;2023-03-26T13:26:49;99491.75;;;2.60;41.14
63339;BME280;47485;51.378;-1.342;2023-03-26T13:29:26;99496.14;;;2.76;40.17
63339;BME280;47485;51.378;-1.342;2023-03-26T13:32:02;99497.91;;;3.79;39.87